Time;durP1;ratioP1;P1;durP2;ratioP2;P2;SDS_P1;SDS_P2;PMS_P1;PMS_P2;Temp;Humidity;BMP_temperature;BMP_pressure;BME280_temperature;BME280_humidity;BME280_pressure;Samples;Min_cycle;Max_cycle;Signal;HPM_P1;HPM_P2
2022/03/11 00:02:06;;;;;;;7.35;4.80;;;10.60;74.20;;;;;;5012768;28;20030;-82
2022/03/11 00:04:32;;;;;;;7.40;4.80;;;10.70;74.20;;;;;;5001372;28;20093;-81
2022/03/11 00:06:57;;;;;;;7.70;4.97;;;10.60;74.10;;;;;;5009492;28;20378;-82
2022/03/11 00:09:23;;;;;;;6.95;5.05;;;10.60;74.20;;;;;;4993050;28;20038;-80
2022/03/11 00:11:49;;;;;;;7.25;5.30;;;10.60;74.20;;;;;;4997983;28;20124;-83
2022/03/11 00:14:15;;;;;;;7.53;4.93;;;10.50;74.20;;;;;;4980406;28;20026;-82
2022/03/11 00:16:41;;;;;;;6.30;4.43;;;10.50;74.20;;;;;;4984939;28;20066;-82
2022/03/11 00:19:07;;;;;;;7.50;5.10;;;10.50;74.30;;;;;;4997456;28;20088;-82
2022/03/11 00:21:33;;;;;;;6.30;4.97;;;10.50;74.30;;;;;;5005761;28;20026;-81
2022/03/11 00:23:59;;;;;;;5.70;4.28;;;10.40;74.30;;;;;;4997863;28;20049;-82
2022/03/11 00:26:25;;;;;;;6.15;4.63;;;10.40;74.40;;;;;;5016696;28;20036;-82
2022/03/11 00:28:51;;;;;;;6.65;4.72;;;10.40;74.40;;;;;;5012031;28;20843;-82
2022/03/11 00:31:17;;;;;;;7.22;5.40;;;10.40;74.40;;;;;;5000257;28;20048;-82
2022/03/11 00:33:43;;;;;;;6.60;4.88;;;10.40;74.40;;;;;;4998914;28;20025;-81
2022/03/11 00:36:09;;;;;;;6.53;4.63;;;10.40;74.50;;;;;;5012215;28;20018;-82
2022/03/11 00:38:36;;;;;;;6.82;4.95;;;10.30;74.40;;;;;;5000090;28;20083;-82
2022/03/11 00:41:01;;;;;;;6.40;4.80;;;10.30;74.50;;;;;;5016486;28;20017;-82
2022/03/11 00:43:28;;;;;;;8.07;5.00;;;10.30;74.50;;;;;;5016264;28;20095;-80
2022/03/11 00:45:55;;;;;;;7.63;4.72;;;10.20;74.50;;;;;;4997055;28;20022;-82
2022/03/11 00:48:23;;;;;;;5.88;4.50;;;10.20;74.50;;;;;;5000145;28;20028;-81
2022/03/11 00:50:49;;;;;;;7.03;4.82;;;10.20;74.60;;;;;;4999771;28;20057;-82
2022/03/11 00:53:15;;;;;;;7.00;4.50;;;10.20;74.60;;;;;;5010839;28;20627;-82
2022/03/11 00:55:40;;;;;;;6.82;4.82;;;10.20;74.60;;;;;;4998823;28;20053;-82
2022/03/11 00:58:06;;;;;;;6.57;4.65;;;10.10;74.60;;;;;;5009490;28;20040;-83
2022/03/11 01:00:33;;;;;;;7.03;5.15;;;10.10;74.60;;;;;;4997820;28;20471;-82
2022/03/11 01:02:59;;;;;;;6.20;4.45;;;10.10;74.60;;;;;;4999456;28;20041;-83
2022/03/11 01:05:25;;;;;;;7.32;5.10;;;10.00;74.60;;;;;;4998698;28;20040;-83
2022/03/11 01:07:52;;;;;;;7.25;5.18;;;10.10;74.70;;;;;;4997218;28;20055;-83
2022/03/11 01:10:19;;;;;;;6.75;4.85;;;10.00;74.70;;;;;;5027277;28;20045;-82
2022/03/11 01:12:45;;;;;;;7.07;5.07;;;10.00;74.70;;;;;;4999402;28;20115;-82
2022/03/11 01:15:11;;;;;;;7.18;5.13;;;9.90;74.70;;;;;;4996357;28;20030;-83
2022/03/11 01:17:38;;;;;;;7.35;5.22;;;9.90;74.70;;;;;;5023213;28;20088;-82
2022/03/11 01:20:06;;;;;;;7.65;5.25;;;9.90;74.70;;;;;;5011763;28;20033;-82
2022/03/11 01:22:32;;;;;;;7.85;5.43;;;9.90;74.70;;;;;;4994032;28;20033;-82
2022/03/11 01:24:59;;;;;;;7.18;4.78;;;9.80;74.70;;;;;;5007427;28;20026;-82
2022/03/11 01:27:25;;;;;;;6.72;4.95;;;9.80;74.70;;;;;;5014998;28;20034;-82
2022/03/11 01:29:51;;;;;;;8.20;5.78;;;9.80;74.70;;;;;;5010509;28;20034;-82
2022/03/11 01:32:17;;;;;;;6.88;5.20;;;9.80;74.70;;;;;;4997838;28;20029;-82
2022/03/11 01:34:43;;;;;;;7.95;5.68;;;9.80;74.80;;;;;;5015456;28;20049;-82
2022/03/11 01:37:09;;;;;;;6.93;4.97;;;9.70;74.70;;;;;;5011356;28;20445;-83
2022/03/11 01:39:37;;;;;;;6.85;4.88;;;9.80;74.80;;;;;;4995826;28;20040;-82
2022/03/11 01:42:03;;;;;;;7.25;5.22;;;9.70;74.70;;;;;;4990711;28;20013;-82
2022/03/11 01:44:29;;;;;;;8.18;5.80;;;9.70;74.70;;;;;;4978745;28;20310;-81
2022/03/11 01:46:55;;;;;;;7.40;5.43;;;9.70;74.70;;;;;;4995169;28;20429;-82
2022/03/11 01:49:22;;;;;;;7.68;5.72;;;9.60;74.70;;;;;;4995657;28;20025;-82
2022/03/11 01:51:48;;;;;;;7.75;5.88;;;9.60;74.70;;;;;;5015174;28;20041;-82
2022/03/11 01:54:14;;;;;;;7.90;5.55;;;9.60;74.80;;;;;;5010047;28;20096;-82
2022/03/11 01:56:41;;;;;;;7.72;5.32;;;9.60;74.80;;;;;;5027242;28;20083;-82
2022/03/11 01:59:08;;;;;;;8.57;5.90;;;9.60;74.80;;;;;;4998620;28;20052;-82
2022/03/11 02:01:35;;;;;;;7.88;5.95;;;9.50;74.80;;;;;;5002177;28;20109;-82
2022/03/11 02:04:01;;;;;;;7.63;5.65;;;9.50;74.80;;;;;;5012920;28;20446;-82
2022/03/11 02:06:28;;;;;;;7.50;5.45;;;9.50;74.80;;;;;;4993145;28;20092;-82
2022/03/11 02:08:55;;;;;;;7.45;5.82;;;9.50;74.80;;;;;;4983542;28;20045;-83
2022/03/11 02:11:21;;;;;;;7.85;5.95;;;9.50;74.80;;;;;;4998836;28;20156;-83
2022/03/11 02:13:50;;;;;;;8.02;5.95;;;9.40;74.70;;;;;;4998741;28;20025;-82
2022/03/11 02:16:30;;;;;;;9.18;6.32;;;9.40;74.70;;;;;;4997569;28;20030;-82
2022/03/11 02:18:57;;;;;;;8.02;5.88;;;9.40;74.80;;;;;;5011780;28;20666;-80
2022/03/11 02:21:25;;;;;;;9.07;6.35;;;9.30;74.80;;;;;;5014012;28;20022;-82
2022/03/11 02:23:59;;;;;;;8.68;6.50;;;9.30;74.80;;;;;;5007842;28;20049;-82
2022/03/11 02:26:28;;;;;;;8.27;5.93;;;9.30;74.90;;;;;;4987406;28;20135;-83
2022/03/11 02:28:56;;;;;;;8.32;6.10;;;9.30;74.80;;;;;;4990974;28;20161;-82
2022/03/11 02:31:26;;;;;;;8.63;6.32;;;9.20;74.80;;;;;;4994591;28;20403;-82
2022/03/11 02:33:51;;;;;;;8.30;6.32;;;9.20;74.80;;;;;;4988960;28;20116;-82
2022/03/11 02:36:18;;;;;;;7.78;6.03;;;9.20;74.80;;;;;;5013791;28;20505;-82
2022/03/11 02:38:44;;;;;;;8.48;6.32;;;9.20;74.90;;;;;;4982719;28;20052;-82
2022/03/11 02:41:10;;;;;;;8.40;5.95;;;9.10;74.80;;;;;;5010228;28;20065;-83
2022/03/11 02:43:36;;;;;;;8.38;6.50;;;9.10;74.80;;;;;;4968899;28;20034;-82
2022/03/11 02:46:02;;;;;;;9.32;6.55;;;9.10;74.80;;;;;;4978247;28;20100;-82
2022/03/11 02:48:29;;;;;;;8.52;6.28;;;9.10;74.90;;;;;;5005978;28;20058;-83
2022/03/11 02:50:55;;;;;;;8.55;6.35;;;9.10;74.90;;;;;;4975409;28;20030;-82
2022/03/11 02:53:21;;;;;;;8.30;6.20;;;9.00;74.90;;;;;;4989004;28;20040;-82
2022/03/11 02:55:47;;;;;;;9.50;6.10;;;9.00;74.90;;;;;;4992201;28;20029;-81
2022/03/11 02:58:13;;;;;;;8.57;6.25;;;9.00;74.80;;;;;;5006285;28;20026;-83
2022/03/11 03:00:39;;;;;;;8.90;6.25;;;9.00;75.00;;;;;;4989735;28;20048;-82
2022/03/11 03:03:05;;;;;;;8.45;6.07;;;9.00;74.90;;;;;;5004356;28;20029;-84
2022/03/11 03:05:31;;;;;;;9.00;6.60;;;8.90;74.80;;;;;;4964704;28;20031;-82
2022/03/11 03:07:58;;;;;;;8.45;6.47;;;8.90;74.80;;;;;;4993937;28;20092;-83
2022/03/11 03:10:24;;;;;;;8.23;5.72;;;8.90;74.80;;;;;;4988537;28;20390;-84
2022/03/11 03:12:52;;;;;;;7.75;5.68;;;8.90;74.80;;;;;;4993050;28;20065;-82
2022/03/11 03:15:18;;;;;;;7.90;6.28;;;8.80;74.80;;;;;;5008124;28;20077;-83
2022/03/11 03:17:44;;;;;;;8.25;6.00;;;8.80;74.80;;;;;;4991277;28;20027;-83
2022/03/11 03:20:10;;;;;;;7.55;5.28;;;8.80;74.90;;;;;;5006733;28;20530;-82
2022/03/11 03:22:36;;;;;;;7.75;5.85;;;8.80;75.00;;;;;;4992953;28;20029;-83
2022/03/11 03:25:04;;;;;;;7.60;5.75;;;8.80;74.90;;;;;;4996103;28;20030;-82
2022/03/11 03:27:30;;;;;;;7.43;5.82;;;8.70;75.50;;;;;;4991471;28;20223;-82
2022/03/11 03:29:56;;;;;;;7.88;6.28;;;8.70;74.90;;;;;;5034296;28;20505;-82
2022/03/11 03:32:22;;;;;;;7.63;5.75;;;8.70;74.90;;;;;;5002102;28;20487;-81
2022/03/11 03:34:48;;;;;;;8.43;6.40;;;8.70;75.00;;;;;;5003599;28;20056;-83
2022/03/11 03:37:14;;;;;;;9.05;6.68;;;8.60;75.00;;;;;;4975341;28;20025;-83
2022/03/11 03:39:41;;;;;;;7.22;5.65;;;8.60;75.60;;;;;;4990309;28;20038;-81
2022/03/11 03:42:08;;;;;;;7.90;5.70;;;8.60;75.00;;;;;;5015092;28;20034;-83
2022/03/11 03:44:34;;;;;;;8.13;6.07;;;8.50;75.00;;;;;;4996605;28;20080;-82
2022/03/11 03:46:59;;;;;;;8.20;5.95;;;8.50;75.00;;;;;;5010402;28;20038;-82
2022/03/11 03:49:25;;;;;;;8.48;5.68;;;8.50;75.00;;;;;;5022088;28;20109;-82
2022/03/11 03:51:52;;;;;;;7.65;5.93;;;8.50;75.00;;;;;;4996645;28;20044;-82
2022/03/11 03:54:18;;;;;;;7.75;5.68;;;8.50;75.00;;;;;;5019839;28;20038;-82
2022/03/11 03:56:46;;;;;;;7.90;5.88;;;8.50;75.00;;;;;;4998702;28;20056;-83
2022/03/11 03:59:13;;;;;;;7.68;5.50;;;8.50;75.00;;;;;;4996541;28;20032;-82
2022/03/11 04:01:41;;;;;;;7.13;5.57;;;8.40;75.00;;;;;;4999021;28;20056;-81
2022/03/11 04:04:09;;;;;;;8.48;6.30;;;8.40;75.00;;;;;;5001012;28;20033;-82
2022/03/11 04:06:36;;;;;;;7.65;5.55;;;8.40;74.90;;;;;;5015373;28;20021;-83
2022/03/11 04:09:04;;;;;;;8.75;5.80;;;8.40;75.00;;;;;;4990149;28;20390;-82
2022/03/11 04:11:30;;;;;;;7.45;5.53;;;8.30;74.90;;;;;;5016987;28;20531;-82
2022/03/11 04:13:58;;;;;;;8.10;5.90;;;8.30;74.90;;;;;;5016574;28;20025;-82
2022/03/11 04:16:24;;;;;;;8.10;6.15;;;8.30;74.90;;;;;;4999706;28;20030;-83
2022/03/11 04:18:51;;;;;;;8.23;5.82;;;8.30;74.90;;;;;;5004669;28;20040;-82
2022/03/11 04:21:18;;;;;;;7.85;5.55;;;8.30;74.90;;;;;;5012843;28;20129;-82
2022/03/11 04:23:45;;;;;;;7.38;5.55;;;8.30;74.90;;;;;;5014359;28;20397;-82
2022/03/11 04:26:11;;;;;;;7.07;5.57;;;8.30;74.80;;;;;;4998890;28;20032;-82
2022/03/11 04:28:38;;;;;;;8.00;6.00;;;8.20;74.80;;;;;;5008181;28;20033;-82
2022/03/11 04:31:07;;;;;;;7.63;5.80;;;8.20;74.80;;;;;;4991613;28;20105;-83
2022/03/11 04:33:34;;;;;;;7.78;5.20;;;8.20;74.80;;;;;;4974415;28;20530;-82
2022/03/11 04:36:00;;;;;;;8.82;6.47;;;8.20;74.80;;;;;;5033600;28;20060;-83
2022/03/11 04:38:25;;;;;;;7.38;5.63;;;8.20;74.80;;;;;;5014266;28;20045;-82
2022/03/11 04:40:52;;;;;;;7.47;5.78;;;8.10;74.70;;;;;;5015814;28;20045;-82
2022/03/11 04:43:18;;;;;;;7.47;5.53;;;8.10;74.70;;;;;;5013626;28;20036;-83
2022/03/11 04:45:44;;;;;;;7.95;5.45;;;8.10;74.70;;;;;;4999604;28;20025;-82
2022/03/11 04:48:10;;;;;;;7.38;5.32;;;8.10;74.70;;;;;;4999354;28;20022;-83
2022/03/11 04:50:36;;;;;;;7.30;5.57;;;8.10;74.70;;;;;;4980018;28;20088;-82
2022/03/11 04:53:03;;;;;;;8.00;5.85;;;8.10;74.70;;;;;;4982846;28;20548;-83
2022/03/11 04:55:29;;;;;;;8.20;5.65;;;8.10;74.70;;;;;;5007769;28;20041;-83
2022/03/11 04:57:55;;;;;;;7.88;5.47;;;8.00;74.70;;;;;;5008269;28;20106;-81
2022/03/11 05:00:21;;;;;;;7.95;5.45;;;8.00;74.70;;;;;;5007904;28;20128;-82
2022/03/11 05:02:46;;;;;;;7.65;5.85;;;8.00;74.60;;;;;;4988565;28;20744;-83
2022/03/11 05:05:13;;;;;;;7.88;5.78;;;8.00;74.60;;;;;;4997115;28;20057;-82
2022/03/11 05:07:39;;;;;;;7.10;5.32;;;8.00;74.60;;;;;;5008024;28;20030;-82
2022/03/11 05:10:07;;;;;;;6.88;5.45;;;7.90;74.60;;;;;;5008247;28;20477;-83
2022/03/11 05:12:35;;;;;;;7.40;5.40;;;7.90;74.60;;;;;;4982414;28;20108;-82
2022/03/11 05:15:02;;;;;;;8.05;5.60;;;7.90;74.60;;;;;;4995952;28;20037;-83
2022/03/11 05:17:28;;;;;;;7.15;5.25;;;7.90;74.60;;;;;;4998373;28;20038;-83
2022/03/11 05:19:54;;;;;;;7.72;5.63;;;7.90;74.60;;;;;;5016057;28;20455;-83
2022/03/11 05:22:20;;;;;;;7.63;5.40;;;7.90;74.70;;;;;;4996179;28;20033;-83
2022/03/11 05:24:47;;;;;;;7.95;5.65;;;7.90;74.70;;;;;;5007214;28;20099;-83
2022/03/11 05:27:12;;;;;;;7.28;5.45;;;7.80;74.60;;;;;;5014550;28;20429;-79
2022/03/11 05:29:40;;;;;;;7.70;5.55;;;7.80;75.20;;;;;;5030704;28;20179;-79
2022/03/11 05:32:07;;;;;;;6.78;5.15;;;7.80;74.60;;;;;;4983573;28;20030;-80
2022/03/11 05:34:34;;;;;;;7.63;5.53;;;7.80;74.60;;;;;;4997852;28;20120;-78
2022/03/11 05:37:00;;;;;;;6.93;5.35;;;7.80;74.60;;;;;;4989702;28;20045;-78
2022/03/11 05:39:26;;;;;;;6.72;5.20;;;7.80;74.60;;;;;;5029183;28;20045;-80
2022/03/11 05:41:52;;;;;;;6.45;4.88;;;7.70;74.50;;;;;;5009319;28;20021;-80
2022/03/11 05:44:18;;;;;;;6.60;5.13;;;7.70;74.50;;;;;;4993619;28;20044;-79
2022/03/11 05:46:47;;;;;;;7.55;5.45;;;7.70;74.50;;;;;;4994577;28;20481;-78
2022/03/11 05:49:13;;;;;;;6.93;5.13;;;7.70;74.50;;;;;;4982539;28;20044;-80
2022/03/11 05:51:39;;;;;;;6.72;5.00;;;7.70;74.50;;;;;;4997467;28;20032;-79
2022/03/11 05:54:05;;;;;;;7.07;5.18;;;7.60;74.50;;;;;;4994691;28;20018;-79
2022/03/11 05:56:31;;;;;;;6.72;5.15;;;7.70;74.50;;;;;;4995067;28;20109;-79
2022/03/11 05:58:57;;;;;;;7.50;5.68;;;7.60;74.50;;;;;;5012434;28;20032;-80
2022/03/11 06:01:25;;;;;;;7.05;5.35;;;7.60;74.50;;;;;;4998036;28;20033;-80
2022/03/11 06:03:51;;;;;;;7.03;5.13;;;7.60;74.50;;;;;;5005519;28;20465;-79
2022/03/11 06:06:16;;;;;;;7.22;5.32;;;7.60;74.50;;;;;;4997452;28;20057;-79
2022/03/11 06:08:43;;;;;;;6.78;5.18;;;7.60;74.50;;;;;;5013227;28;20140;-80
2022/03/11 06:11:09;;;;;;;6.22;4.78;;;7.60;74.50;;;;;;5013954;28;20036;-79
2022/03/11 06:13:35;;;;;;;7.47;5.05;;;7.60;74.50;;;;;;4981081;28;20029;-79
2022/03/11 06:16:02;;;;;;;7.07;5.00;;;7.50;74.50;;;;;;4980395;28;20026;-79
2022/03/11 06:18:28;;;;;;;7.40;5.63;;;7.50;74.50;;;;;;4997257;28;20197;-81
2022/03/11 06:20:55;;;;;;;7.40;5.03;;;7.50;74.50;;;;;;5004101;28;20117;-79
2022/03/11 06:23:21;;;;;;;7.15;5.53;;;7.50;74.50;;;;;;4994422;28;20057;-78
2022/03/11 06:25:47;;;;;;;6.90;5.05;;;7.50;74.50;;;;;;4996757;28;20040;-80
2022/03/11 06:28:13;;;;;;;7.63;5.45;;;7.50;74.50;;;;;;4994120;28;20029;-80
2022/03/11 06:30:39;;;;;;;7.78;5.38;;;7.50;74.50;;;;;;4998814;28;20079;-81
2022/03/11 06:33:06;;;;;;;7.13;5.43;;;7.40;74.50;;;;;;5029418;28;20033;-79
2022/03/11 06:35:32;;;;;;;7.15;5.10;;;7.40;74.50;;;;;;5030961;28;20143;-80
2022/03/11 06:37:58;;;;;;;6.93;5.20;;;7.40;74.50;;;;;;4997878;28;20038;-80
2022/03/11 06:40:24;;;;;;;7.45;5.32;;;7.40;74.50;;;;;;4996462;28;20494;-79
2022/03/11 06:42:50;;;;;;;7.22;5.30;;;7.40;74.50;;;;;;5013477;28;20496;-80
2022/03/11 06:45:18;;;;;;;7.63;5.68;;;7.40;74.60;;;;;;4978765;28;20486;-80
2022/03/11 06:47:46;;;;;;;7.40;5.30;;;7.30;74.50;;;;;;5005234;28;20023;-79
2022/03/11 06:50:12;;;;;;;7.82;5.78;;;7.30;74.50;;;;;;5031627;28;20071;-80
2022/03/11 06:52:38;;;;;;;7.45;5.38;;;7.30;74.60;;;;;;5013295;28;20550;-81
2022/03/11 06:55:05;;;;;;;7.82;5.80;;;7.30;74.50;;;;;;4993658;28;20018;-78
2022/03/11 06:57:32;;;;;;;7.20;4.93;;;7.30;74.50;;;;;;5011768;28;20040;-80
2022/03/11 06:59:58;;;;;;;7.10;5.40;;;7.30;74.50;;;;;;5026760;28;20029;-79
2022/03/11 07:02:23;;;;;;;7.40;5.25;;;7.30;74.50;;;;;;5013372;28;20121;-79
2022/03/11 07:04:49;;;;;;;7.53;5.32;;;7.30;74.60;;;;;;4996178;28;20083;-80
2022/03/11 07:07:15;;;;;;;8.35;5.30;;;7.30;74.60;;;;;;4980966;28;20076;-79
2022/03/11 07:09:41;;;;;;;7.95;5.40;;;7.30;74.60;;;;;;5012758;28;20025;-80
2022/03/11 07:12:07;;;;;;;7.38;5.30;;;7.30;74.60;;;;;;4980579;28;20041;-81
2022/03/11 07:14:35;;;;;;;6.85;5.15;;;7.30;74.60;;;;;;5012380;28;20049;-82
2022/03/11 07:17:07;;;;;;;6.55;5.05;;;7.30;74.60;;;;;;5013739;28;20025;-80
2022/03/11 07:19:34;;;;;;;7.75;5.43;;;7.20;74.60;;;;;;4994134;28;20046;-81
2022/03/11 07:22:03;;;;;;;6.78;4.88;;;7.30;74.60;;;;;;5012260;28;20028;-80
2022/03/11 07:24:29;;;;;;;7.40;5.40;;;7.30;74.70;;;;;;5009903;28;20045;-80
2022/03/11 07:26:57;;;;;;;6.78;5.28;;;7.20;74.60;;;;;;4981030;28;20048;-84
2022/03/11 07:29:23;;;;;;;7.28;5.40;;;7.20;74.60;;;;;;5011295;28;20203;-80
2022/03/11 07:31:49;;;;;;;6.50;5.32;;;7.20;74.60;;;;;;4980193;28;20034;-80
2022/03/11 07:34:15;;;;;;;6.78;4.93;;;7.30;74.70;;;;;;5012863;28;20037;-80
2022/03/11 07:36:41;;;;;;;6.88;5.07;;;7.20;74.60;;;;;;4996385;28;20208;-80
2022/03/11 07:39:08;;;;;;;8.07;5.28;;;7.20;74.60;;;;;;4988734;28;20038;-79
2022/03/11 07:41:34;;;;;;;7.32;5.40;;;7.20;74.60;;;;;;5004258;28;20477;-79
2022/03/11 07:44:01;;;;;;;7.95;5.70;;;7.30;74.70;;;;;;5012606;28;20033;-79
2022/03/11 07:46:29;;;;;;;7.70;5.55;;;7.30;74.70;;;;;;5012448;28;20033;-80
2022/03/11 07:48:55;;;;;;;7.82;5.53;;;7.30;74.70;;;;;;5011871;28;20022;-80
2022/03/11 07:51:22;;;;;;;8.38;5.65;;;7.20;74.60;;;;;;4995294;28;20108;-80
2022/03/11 07:53:48;;;;;;;7.70;5.72;;;7.30;74.70;;;;;;4991867;28;20383;-80
2022/03/11 07:56:14;;;;;;;7.47;5.82;;;7.30;74.70;;;;;;4988121;28;20025;-81
2022/03/11 07:58:43;;;;;;;8.98;6.00;;;7.20;74.60;;;;;;5023266;28;20035;-81
2022/03/11 08:01:12;;;;;;;7.72;5.63;;;7.30;74.70;;;;;;4997835;28;20026;-79
2022/03/11 08:03:40;;;;;;;7.88;5.70;;;7.30;75.30;;;;;;4997684;28;20057;-81
2022/03/11 08:06:10;;;;;;;8.93;5.53;;;7.30;74.60;;;;;;5000205;28;20032;-80
2022/03/11 08:08:37;;;;;;;7.35;5.72;;;7.30;74.60;;;;;;5000707;28;20041;-80
2022/03/11 08:11:03;;;;;;;9.50;6.50;;;7.30;74.70;;;;;;5012537;28;20393;-80
2022/03/11 08:13:31;;;;;;;8.27;6.00;;;7.30;74.60;;;;;;4995570;28;20460;-81
2022/03/11 08:15:57;;;;;;;8.82;6.35;;;7.40;74.60;;;;;;5032708;28;20079;-79
2022/03/11 08:18:23;;;;;;;8.68;6.20;;;7.40;74.70;;;;;;5016560;28;20474;-79
2022/03/11 08:20:49;;;;;;;8.13;6.00;;;7.40;74.60;;;;;;5015753;28;20037;-80
2022/03/11 08:23:15;;;;;;;8.07;5.80;;;7.40;74.60;;;;;;4976093;28;20631;-79
2022/03/11 08:25:41;;;;;;;9.20;6.10;;;7.40;74.60;;;;;;4993190;28;20030;-80
2022/03/11 08:28:10;;;;;;;8.25;6.45;;;7.40;74.60;;;;;;4993577;28;20454;-80
2022/03/11 08:30:37;;;;;;;9.57;7.30;;;7.40;74.60;;;;;;4985400;28;20038;-79
2022/03/11 08:33:04;;;;;;;8.27;6.30;;;7.40;74.60;;;;;;4960502;28;20042;-80
2022/03/11 08:35:30;;;;;;;8.30;6.30;;;7.40;74.60;;;;;;4969168;28;20566;-79
2022/03/11 08:37:56;;;;;;;8.50;6.32;;;7.40;74.60;;;;;;4973415;28;20061;-79
2022/03/11 08:40:26;;;;;;;9.55;7.20;;;7.50;74.60;;;;;;4991332;28;20066;-79
2022/03/11 08:42:53;;;;;;;9.77;6.90;;;7.50;74.70;;;;;;4976418;28;20451;-79
2022/03/11 08:45:21;;;;;;;8.93;6.75;;;7.50;75.30;;;;;;4976650;28;20062;-79
2022/03/11 08:47:50;;;;;;;9.32;6.80;;;7.50;74.70;;;;;;4992446;28;20081;-80
2022/03/11 08:50:17;;;;;;;8.95;6.68;;;7.60;74.70;;;;;;4976495;28;20042;-79
2022/03/11 08:52:44;;;;;;;10.77;7.13;;;7.60;74.70;;;;;;4989245;28;20049;-79
2022/03/11 08:55:11;;;;;;;9.38;7.25;;;7.60;74.70;;;;;;4988576;28;20439;-79
2022/03/11 08:57:38;;;;;;;9.73;6.70;;;7.70;74.70;;;;;;4992106;28;20084;-79
2022/03/11 09:00:13;;;;;;;9.60;7.13;;;7.70;74.70;;;;;;4978440;28;20046;-79
2022/03/11 09:02:39;;;;;;;9.52;6.93;;;7.70;74.60;;;;;;4976381;28;20038;-81
2022/03/11 09:05:07;;;;;;;9.15;6.78;;;7.70;74.60;;;;;;4992641;28;20033;-80
2022/03/11 09:07:35;;;;;;;10.40;7.63;;;7.70;74.60;;;;;;4992390;28;20062;-79
2022/03/11 09:10:06;;;;;;;10.93;7.68;;;7.80;74.70;;;;;;4993279;28;20137;-77
2022/03/11 09:12:32;;;;;;;9.73;7.32;;;7.80;74.70;;;;;;4977024;28;20089;-79
2022/03/11 09:14:57;;;;;;;10.63;7.47;;;7.80;74.60;;;;;;4990435;28;20026;-79
2022/03/11 09:17:23;;;;;;;14.65;8.02;;;7.90;74.70;;;;;;4968352;28;20607;-79
2022/03/11 09:19:49;;;;;;;9.77;7.22;;;7.90;74.60;;;;;;4992900;28;20038;-79
2022/03/11 09:22:17;;;;;;;9.55;7.53;;;8.00;74.60;;;;;;4994021;28;20486;-80
2022/03/11 09:24:44;;;;;;;10.57;7.55;;;8.00;74.60;;;;;;4973250;28;20050;-79
2022/03/11 09:27:11;;;;;;;10.95;7.50;;;8.10;74.50;;;;;;4991360;28;20137;-80
2022/03/11 09:29:38;;;;;;;12.05;8.65;;;8.10;74.40;;;;;;4992505;28;20030;-79
2022/03/11 09:32:05;;;;;;;9.45;7.05;;;8.20;74.40;;;;;;4976052;28;20397;-80
2022/03/11 09:34:31;;;;;;;10.98;7.70;;;8.20;74.30;;;;;;4992270;28;20023;-79
2022/03/11 09:36:57;;;;;;;10.07;7.40;;;8.30;74.30;;;;;;4959258;28;20030;-80
2022/03/11 09:39:24;;;;;;;10.38;8.07;;;8.30;74.30;;;;;;4983748;28;20396;-79
2022/03/11 09:41:50;;;;;;;9.68;7.68;;;8.40;74.30;;;;;;4988785;28;20622;-79
2022/03/11 09:44:17;;;;;;;10.45;7.80;;;8.50;74.20;;;;;;4973014;28;20041;-80
2022/03/11 09:46:44;;;;;;;11.25;8.35;;;8.50;74.80;;;;;;4981118;28;20015;-79
2022/03/11 09:49:17;;;;;;;10.70;8.40;;;8.60;74.20;;;;;;4984621;28;20041;-79
2022/03/11 09:51:45;;;;;;;10.13;7.43;;;8.60;74.10;;;;;;4992835;28;20026;-80
2022/03/11 09:54:12;;;;;;;9.15;7.20;;;8.70;74.10;;;;;;4993627;28;20472;-80
2022/03/11 09:56:40;;;;;;;10.82;8.10;;;8.80;74.10;;;;;;5006142;28;20659;-79
2022/03/11 09:59:07;;;;;;;10.13;7.70;;;8.80;74.00;;;;;;4983540;28;20455;-79
2022/03/11 10:01:34;;;;;;;10.35;7.97;;;8.90;74.00;;;;;;4976087;28;20026;-79
2022/03/11 10:04:04;;;;;;;10.20;7.57;;;9.00;74.00;;;;;;4991843;28;20101;-83
2022/03/11 10:06:47;;;;;;;10.65;8.05;;;9.10;74.00;;;;;;4988314;28;20064;-79
2022/03/11 10:09:19;;;;;;;10.25;7.78;;;9.10;74.00;;;;;;4976907;28;20038;-77
2022/03/11 10:11:58;;;;;;;9.90;7.47;;;9.20;73.90;;;;;;4995785;28;20035;-77
2022/03/11 10:14:29;;;;;;;9.80;7.85;;;9.30;74.00;;;;;;4971018;28;20102;-77
2022/03/11 10:16:55;;;;;;;11.98;7.85;;;9.30;73.90;;;;;;4988315;28;20062;-77
2022/03/11 10:19:22;;;;;;;10.68;8.02;;;9.40;73.90;;;;;;4990539;28;20096;-77
2022/03/11 10:21:48;;;;;;;11.10;7.85;;;9.50;73.90;;;;;;4974499;28;20467;-78
2022/03/11 10:24:19;;;;;;;10.30;8.35;;;9.50;73.80;;;;;;5002852;28;20414;-76
2022/03/11 10:26:50;;;;;;;9.85;7.90;;;9.60;73.80;;;;;;5009816;28;20053;-78
2022/03/11 10:29:25;;;;;;;10.30;8.20;;;9.70;73.80;;;;;;5010441;28;20079;-76
2022/03/11 10:31:52;;;;;;;;;;;9.80;73.80;;;;;;5010763;28;20038;-77
2022/03/11 10:34:26;;;;;;;9.25;6.90;;;9.90;73.70;;;;;;5010427;28;19909;-77
2022/03/11 10:37:07;;;;;;;10.07;7.65;;;10.00;74.30;;;;;;5010081;28;20022;-79
2022/03/11 10:39:38;;;;;;;10.27;7.40;;;10.00;73.70;;;;;;5002030;28;20076;-76
2022/03/11 10:42:13;;;;;;;10.63;8.38;;;10.10;73.60;;;;;;5011156;28;20022;-76
2022/03/11 10:44:54;;;;;;;11.90;7.70;;;10.20;73.60;;;;;;5002078;28;20024;-78
2022/03/11 10:47:35;;;;;;;10.90;7.97;;;10.30;73.60;;;;;;5009749;28;20046;-76
2022/03/11 10:50:12;;;;;;;10.60;8.10;;;10.30;73.50;;;;;;5009047;28;20833;-77
2022/03/11 10:52:41;;;;;;;10.43;7.70;;;10.40;73.40;;;;;;5010641;28;20121;-76
2022/03/11 10:55:23;;;;;;;11.40;8.77;;;10.50;73.40;;;;;;4993158;28;20201;-76
2022/03/11 10:57:52;;;;;;;10.88;8.13;;;10.60;73.50;;;;;;5009048;28;20025;-76
2022/03/11 11:00:26;;;;;;;9.88;7.70;;;10.70;73.40;;;;;;5010949;28;20033;-76
2022/03/11 11:02:57;;;;;;;10.05;7.93;;;10.80;73.50;;;;;;5009079;28;20061;-76
2022/03/11 11:05:24;;;;;;;10.48;8.80;;;10.90;73.50;;;;;;4993284;28;20022;-77
2022/03/11 11:07:51;;;;;;;10.05;8.15;;;10.90;73.40;;;;;;5009317;28;20467;-77
2022/03/11 11:10:19;;;;;;;11.15;8.65;;;11.00;73.50;;;;;;4993026;28;20041;-76
2022/03/11 11:12:46;;;;;;;11.10;8.80;;;11.10;73.50;;;;;;4993142;28;20494;-76
2022/03/11 11:15:13;;;;;;;12.18;8.93;;;11.20;73.50;;;;;;4992929;28;20022;-77
2022/03/11 11:17:41;;;;;;;10.15;7.85;;;11.30;74.10;;;;;;4993018;28;20446;-76
2022/03/11 11:20:20;;;;;;;12.10;9.00;;;11.40;73.40;;;;;;5008993;28;20471;-76
2022/03/11 11:22:47;;;;;;;10.73;8.65;;;11.40;73.40;;;;;;5009834;28;20168;-76
2022/03/11 11:25:17;;;;;;;10.63;8.00;;;11.50;73.30;;;;;;4995813;28;20073;-76
2022/03/11 11:27:45;;;;;;;10.23;8.05;;;11.60;73.30;;;;;;4992996;28;20736;-76
2022/03/11 11:30:16;;;;;;;10.93;8.15;;;11.60;73.20;;;;;;5028447;28;20033;-77
2022/03/11 11:32:42;;;;;;;11.85;8.65;;;11.70;73.30;;;;;;5012295;28;20539;-77
2022/03/11 11:35:39;;;;;;;10.02;7.95;;;11.80;73.30;;;;;;4995594;28;20152;-77
2022/03/11 11:38:07;;;;;;;11.38;8.18;;;11.90;73.40;;;;;;5012455;28;20028;-77
2022/03/11 11:40:38;;;;;;;11.23;8.20;;;11.90;73.30;;;;;;5000045;28;20133;-75
2022/03/11 11:43:14;;;;;;;12.35;8.77;;;12.00;73.40;;;;;;5011660;28;20025;-77
2022/03/11 11:45:50;;;;;;;11.30;8.70;;;12.10;73.40;;;;;;5004136;28;20021;-77
2022/03/11 11:48:31;;;;;;;9.93;7.70;;;12.10;73.40;;;;;;4998326;28;20030;-77
2022/03/11 11:50:58;;;;;;;10.35;8.45;;;12.20;73.40;;;;;;5032884;28;20518;-75
2022/03/11 11:53:49;;;;;;;9.85;8.07;;;12.20;73.30;;;;;;4980074;28;20083;-76
2022/03/11 11:57:06;;;;;;;10.60;8.10;;;12.30;73.40;;;;;;5021013;28;20029;-79
2022/03/11 11:59:38;;;;;;;9.68;7.90;;;12.30;73.40;;;;;;4993267;28;20037;-76
2022/03/11 12:02:27;;;;;;;10.20;8.35;;;12.40;73.20;;;;;;5033344;28;20029;-76
2022/03/11 12:04:53;;;;;;;11.00;8.77;;;12.40;73.40;;;;;;4997089;28;20041;-77
2022/03/11 12:07:20;;;;;;;10.23;8.35;;;12.50;73.20;;;;;;4985936;28;20302;-77
2022/03/11 12:09:58;;;;;;;11.23;8.80;;;12.50;73.30;;;;;;5008514;28;20124;-80
2022/03/11 12:12:33;;;;;;;11.07;8.63;;;12.60;73.20;;;;;;5033604;28;20099;-77
2022/03/11 12:15:01;;;;;;;10.05;8.60;;;12.60;73.10;;;;;;5015297;28;20120;-76
2022/03/11 12:17:40;;;;;;;9.77;8.05;;;12.70;73.20;;;;;;5033452;28;20036;-77
2022/03/11 12:20:32;;;;;;;10.82;8.48;;;12.70;73.30;;;;;;5014881;28;20040;-76
2022/03/11 12:23:11;;;;;;;10.43;8.30;;;12.80;73.40;;;;;;4987698;28;20099;-77
2022/03/11 12:25:45;;;;;;;10.38;8.30;;;12.90;73.40;;;;;;4996757;28;20040;-76
2022/03/11 12:28:12;;;;;;;10.48;8.82;;;12.90;73.40;;;;;;4999352;28;20028;-76
2022/03/11 12:30:47;;;;;;;10.88;8.18;;;13.00;73.50;;;;;;5020997;28;20021;-76
2022/03/11 12:33:19;;;;;;;10.15;8.40;;;13.00;73.40;;;;;;5014938;28;20034;-76
2022/03/11 12:35:46;;;;;;;11.88;8.75;;;13.00;73.40;;;;;;5015767;28;20033;-76
2022/03/11 12:38:14;;;;;;;11.80;8.90;;;13.10;73.40;;;;;;5014876;28;20029;-77
2022/03/11 12:40:43;;;;;;;10.98;8.55;;;13.10;73.20;;;;;;5017764;28;20029;-77
2022/03/11 12:43:11;;;;;;;11.35;9.25;;;13.20;73.20;;;;;;5007545;28;20022;-77
2022/03/11 12:45:45;;;;;;;10.80;8.68;;;13.20;73.10;;;;;;5007112;28;20038;-77
2022/03/11 12:48:14;;;;;;;11.98;9.40;;;13.30;73.10;;;;;;5015216;28;20489;-77
2022/03/11 12:50:41;;;;;;;12.32;9.50;;;13.30;73.10;;;;;;4998555;28;20467;-77
2022/03/11 12:53:12;;;;;;;11.05;8.95;;;13.40;73.10;;;;;;4998668;28;20037;-77
2022/03/11 12:55:41;;;;;;;11.05;8.63;;;13.50;73.10;;;;;;4995755;28;20474;-77
2022/03/11 12:58:09;;;;;;;11.82;8.77;;;13.50;73.10;;;;;;5025845;28;20036;-77